sensor_id;sensor_type;location;lat;lon;timestamp;P1;durP1;ratioP1;P2;durP2;ratioP2
49235;SDS011;35067;48.134;8.378;2023-12-04T00:00:38;9.65;;;5.38;;
49235;SDS011;35067;48.134;8.378;2023-12-04T00:01:45;11.37;;;5.53;;
49235;SDS011;35067;48.134;8.378;2023-12-04T00:02:46;10.50;;;6.53;;
49235;SDS011;35067;48.134;8.378;2023-12-04T00:03:47;9.23;;;5.67;;
49235;SDS011;35067;48.134;8.378;2023-12-04T00:04:48;10.23;;;6.63;;
49235;SDS011;35067;48.134;8.378;2023-12-04T00:05:49;9.77;;;5.77;;
49235;SDS011;35067;48.134;8.378;2023-12-04T00:06:50;9.57;;;6.15;;
49235;SDS011;35067;48.134;8.378;2023-12-04T00:07:51;8.85;;;5.30;;
49235;SDS011;35067;48.134;8.378;2023-12-04T00:08:52;11.87;;;6.53;;
49235;SDS011;35067;48.134;8.378;2023-12-04T00:09:53;9.77;;;6.03;;
49235;SDS011;35067;48.134;8.378;2023-12-04T00:10:54;8.83;;;5.43;;
49235;SDS011;35067;48.134;8.378;2023-12-04T00:11:55;10.17;;;5.90;;
49235;SDS011;35067;48.134;8.378;2023-12-04T00:12:56;10.77;;;5.25;;
49235;SDS011;35067;48.134;8.378;2023-12-04T00:13:57;11.57;;;5.97;;
49235;SDS011;35067;48.134;8.378;2023-12-04T00:14:59;13.25;;;6.80;;
49235;SDS011;35067;48.134;8.378;2023-12-04T00:16:00;12.23;;;6.97;;
49235;SDS011;35067;48.134;8.378;2023-12-04T00:17:00;12.07;;;6.43;;
49235;SDS011;35067;48.134;8.378;2023-12-04T00:18:01;12.37;;;5.40;;
49235;SDS011;35067;48.134;8.378;2023-12-04T00:19:02;10.87;;;6.20;;
49235;SDS011;35067;48.134;8.378;2023-12-04T00:20:03;11.37;;;6.30;;
49235;SDS011;35067;48.134;8.378;2023-12-04T00:21:04;10.77;;;5.68;;
49235;SDS011;35067;48.134;8.378;2023-12-04T00:22:05;12.70;;;6.57;;
49235;SDS011;35067;48.134;8.378;2023-12-04T00:23:06;10.70;;;6.27;;
49235;SDS011;35067;48.134;8.378;2023-12-04T00:24:07;10.67;;;6.00;;
49235;SDS011;35067;48.134;8.378;2023-12-04T00:25:07;10.30;;;6.53;;
49235;SDS011;35067;48.134;8.378;2023-12-04T00:26:08;12.97;;;6.03;;
49235;SDS011;35067;48.134;8.378;2023-12-04T00:27:09;15.23;;;6.33;;
49235;SDS011;35067;48.134;8.378;2023-12-04T00:28:10;8.98;;;5.05;;
49235;SDS011;35067;48.134;8.378;2023-12-04T00:29:11;10.60;;;5.33;;
49235;SDS011;35067;48.134;8.378;2023-12-04T00:30:11;8.43;;;5.33;;
49235;SDS011;35067;48.134;8.378;2023-12-04T00:31:12;13.53;;;6.40;;
49235;SDS011;35067;48.134;8.378;2023-12-04T00:32:13;11.33;;;6.20;;
49235;SDS011;35067;48.134;8.378;2023-12-04T00:33:14;11.30;;;6.00;;
49235;SDS011;35067;48.134;8.378;2023-12-04T00:34:14;11.10;;;6.20;;
49235;SDS011;35067;48.134;8.378;2023-12-04T00:35:15;10.13;;;6.17;;
49235;SDS011;35067;48.134;8.378;2023-12-04T00:36:16;12.70;;;6.75;;
49235;SDS011;35067;48.134;8.378;2023-12-04T00:37:19;8.45;;;5.70;;
49235;SDS011;35067;48.134;8.378;2023-12-04T00:38:22;8.23;;;5.00;;
49235;SDS011;35067;48.134;8.378;2023-12-04T00:39:22;7.90;;;4.90;;
49235;SDS011;35067;48.134;8.378;2023-12-04T00:40:23;9.40;;;5.17;;
49235;SDS011;35067;48.134;8.378;2023-12-04T00:41:24;12.53;;;5.47;;
49235;SDS011;35067;48.134;8.378;2023-12-04T00:42:24;5.43;;;3.23;;
49235;SDS011;35067;48.134;8.378;2023-12-04T00:43:25;2.77;;;1.97;;
49235;SDS011;35067;48.134;8.378;2023-12-04T00:44:26;1.87;;;1.63;;
49235;SDS011;35067;48.134;8.378;2023-12-04T00:45:26;1.10;;;1.00;;
49235;SDS011;35067;48.134;8.378;2023-12-04T00:46:27;1.70;;;1.23;;
49235;SDS011;35067;48.134;8.378;2023-12-04T00:47:28;2.40;;;1.13;;
49235;SDS011;35067;48.134;8.378;2023-12-04T00:48:28;2.50;;;2.00;;
49235;SDS011;35067;48.134;8.378;2023-12-04T00:49:29;8.93;;;3.63;;
49235;SDS011;35067;48.134;8.378;2023-12-04T00:50:30;4.80;;;2.83;;
49235;SDS011;35067;48.134;8.378;2023-12-04T00:51:36;4.83;;;3.13;;
49235;SDS011;35067;48.134;8.378;2023-12-04T00:52:38;6.28;;;4.38;;
49235;SDS011;35067;48.134;8.378;2023-12-04T00:53:39;8.60;;;5.10;;
49235;SDS011;35067;48.134;8.378;2023-12-04T00:54:40;6.53;;;3.27;;
49235;SDS011;35067;48.134;8.378;2023-12-04T00:55:41;3.70;;;1.90;;
49235;SDS011;35067;48.134;8.378;2023-12-04T00:56:42;5.53;;;3.13;;
49235;SDS011;35067;48.134;8.378;2023-12-04T00:57:42;4.20;;;2.93;;
49235;SDS011;35067;48.134;8.378;2023-12-04T00:58:43;4.83;;;2.80;;
49235;SDS011;35067;48.134;8.378;2023-12-04T00:59:44;5.87;;;3.53;;
49235;SDS011;35067;48.134;8.378;2023-12-04T01:00:44;4.00;;;2.17;;
49235;SDS011;35067;48.134;8.378;2023-12-04T01:01:48;2.25;;;1.65;;
49235;SDS011;35067;48.134;8.378;2023-12-04T01:02:48;1.80;;;1.43;;
49235;SDS011;35067;48.134;8.378;2023-12-04T01:03:49;1.90;;;1.50;;
49235;SDS011;35067;48.134;8.378;2023-12-04T01:04:50;1.37;;;1.20;;
49235;SDS011;35067;48.134;8.378;2023-12-04T01:05:51;2.20;;;1.40;;
49235;SDS011;35067;48.134;8.378;2023-12-04T01:06:52;1.73;;;1.23;;
49235;SDS011;35067;48.134;8.378;2023-12-04T01:07:53;2.05;;;0.95;;
49235;SDS011;35067;48.134;8.378;2023-12-04T01:08:54;1.47;;;1.37;;
49235;SDS011;35067;48.134;8.378;2023-12-04T01:09:55;1.58;;;0.93;;
49235;SDS011;35067;48.134;8.378;2023-12-04T01:10:57;3.53;;;2.73;;
49235;SDS011;35067;48.134;8.378;2023-12-04T01:11:58;6.85;;;4.40;;
49235;SDS011;35067;48.134;8.378;2023-12-04T01:12:58;3.63;;;2.90;;
49235;SDS011;35067;48.134;8.378;2023-12-04T01:13:59;3.63;;;2.10;;
49235;SDS011;35067;48.134;8.378;2023-12-04T01:15:00;3.07;;;2.33;;
49235;SDS011;35067;48.134;8.378;2023-12-04T01:16:03;4.80;;;3.00;;
49235;SDS011;35067;48.134;8.378;2023-12-04T01:17:04;6.40;;;3.47;;
49235;SDS011;35067;48.134;8.378;2023-12-04T01:18:06;6.03;;;3.38;;
49235;SDS011;35067;48.134;8.378;2023-12-04T01:19:07;4.27;;;3.00;;
49235;SDS011;35067;48.134;8.378;2023-12-04T01:20:08;5.93;;;3.57;;
49235;SDS011;35067;48.134;8.378;2023-12-04T01:21:09;6.20;;;3.25;;
49235;SDS011;35067;48.134;8.378;2023-12-04T01:22:10;5.82;;;3.35;;
49235;SDS011;35067;48.134;8.378;2023-12-04T01:23:12;4.00;;;2.80;;
49235;SDS011;35067;48.134;8.378;2023-12-04T01:24:14;6.70;;;3.30;;
49235;SDS011;35067;48.134;8.378;2023-12-04T01:25:15;7.93;;;4.03;;
49235;SDS011;35067;48.134;8.378;2023-12-04T01:26:16;5.28;;;3.45;;
49235;SDS011;35067;48.134;8.378;2023-12-04T01:27:17;5.13;;;2.77;;
49235;SDS011;35067;48.134;8.378;2023-12-04T01:28:18;4.88;;;2.65;;
49235;SDS011;35067;48.134;8.378;2023-12-04T01:29:19;3.70;;;2.30;;
49235;SDS011;35067;48.134;8.378;2023-12-04T01:30:19;2.00;;;1.50;;
49235;SDS011;35067;48.134;8.378;2023-12-04T01:31:20;1.40;;;1.30;;
49235;SDS011;35067;48.134;8.378;2023-12-04T01:32:21;2.97;;;2.03;;
49235;SDS011;35067;48.134;8.378;2023-12-04T01:33:21;5.90;;;3.50;;
49235;SDS011;35067;48.134;8.378;2023-12-04T01:34:22;3.67;;;2.63;;
49235;SDS011;35067;48.134;8.378;2023-12-04T01:35:23;3.80;;;2.67;;
49235;SDS011;35067;48.134;8.378;2023-12-04T01:36:24;2.17;;;1.90;;
49235;SDS011;35067;48.134;8.378;2023-12-04T01:37:24;2.57;;;1.40;;
49235;SDS011;35067;48.134;8.378;2023-12-04T01:38:25;1.57;;;1.10;;
49235;SDS011;35067;48.134;8.378;2023-12-04T01:39:26;1.90;;;0.90;;
49235;SDS011;35067;48.134;8.378;2023-12-04T01:40:26;4.60;;;3.00;;
49235;SDS011;35067;48.134;8.378;2023-12-04T01:41:27;4.77;;;2.63;;
49235;SDS011;35067;48.134;8.378;2023-12-04T01:42:28;5.80;;;3.10;;
49235;SDS011;35067;48.134;8.378;2023-12-04T01:43:28;6.17;;;3.57;;
49235;SDS011;35067;48.134;8.378;2023-12-04T01:44:29;5.87;;;3.53;;
49235;SDS011;35067;48.134;8.378;2023-12-04T01:45:30;7.43;;;4.00;;
49235;SDS011;35067;48.134;8.378;2023-12-04T01:46:31;4.27;;;3.00;;
49235;SDS011;35067;48.134;8.378;2023-12-04T01:47:32;2.60;;;1.60;;
49235;SDS011;35067;48.134;8.378;2023-12-04T01:48:33;2.58;;;1.63;;
49235;SDS011;35067;48.134;8.378;2023-12-04T01:49:33;4.80;;;3.40;;
49235;SDS011;35067;48.134;8.378;2023-12-04T01:50:35;2.47;;;1.83;;
49235;SDS011;35067;48.134;8.378;2023-12-04T01:51:36;5.28;;;3.08;;
49235;SDS011;35067;48.134;8.378;2023-12-04T01:52:37;5.20;;;2.87;;
49235;SDS011;35067;48.134;8.378;2023-12-04T01:53:38;3.30;;;2.63;;
49235;SDS011;35067;48.134;8.378;2023-12-04T01:54:40;5.70;;;3.13;;
49235;SDS011;35067;48.134;8.378;2023-12-04T01:55:41;5.33;;;3.93;;
49235;SDS011;35067;48.134;8.378;2023-12-04T01:56:42;6.50;;;2.50;;
49235;SDS011;35067;48.134;8.378;2023-12-04T01:57:44;6.22;;;3.38;;
49235;SDS011;35067;48.134;8.378;2023-12-04T01:58:45;8.80;;;2.92;;
49235;SDS011;35067;48.134;8.378;2023-12-04T01:59:46;5.50;;;3.30;;
49235;SDS011;35067;48.134;8.378;2023-12-04T02:00:47;6.77;;;3.07;;
49235;SDS011;35067;48.134;8.378;2023-12-04T02:01:48;7.77;;;3.80;;
49235;SDS011;35067;48.134;8.378;2023-12-04T02:02:49;4.30;;;3.38;;
49235;SDS011;35067;48.134;8.378;2023-12-04T02:03:50;5.33;;;3.30;;
49235;SDS011;35067;48.134;8.378;2023-12-04T02:04:50;5.63;;;3.40;;
49235;SDS011;35067;48.134;8.378;2023-12-04T02:05:54;3.70;;;2.50;;
49235;SDS011;35067;48.134;8.378;2023-12-04T02:06:59;6.30;;;3.58;;
49235;SDS011;35067;48.134;8.378;2023-12-04T02:08:00;4.47;;;3.10;;
49235;SDS011;35067;48.134;8.378;2023-12-04T02:09:01;6.40;;;2.90;;
49235;SDS011;35067;48.134;8.378;2023-12-04T02:10:02;3.28;;;2.03;;
49235;SDS011;35067;48.134;8.378;2023-12-04T02:11:04;2.80;;;2.17;;
49235;SDS011;35067;48.134;8.378;2023-12-04T02:12:05;4.18;;;2.53;;
49235;SDS011;35067;48.134;8.378;2023-12-04T02:13:06;4.60;;;2.80;;
49235;SDS011;35067;48.134;8.378;2023-12-04T02:14:07;4.03;;;2.60;;
49235;SDS011;35067;48.134;8.378;2023-12-04T02:15:08;5.03;;;2.42;;
49235;SDS011;35067;48.134;8.378;2023-12-04T02:16:09;5.67;;;2.70;;
49235;SDS011;35067;48.134;8.378;2023-12-04T02:17:12;4.35;;;2.15;;
49235;SDS011;35067;48.134;8.378;2023-12-04T02:18:14;3.55;;;2.50;;
49235;SDS011;35067;48.134;8.378;2023-12-04T02:19:16;4.03;;;2.90;;
49235;SDS011;35067;48.134;8.378;2023-12-04T02:20:17;6.80;;;2.97;;
49235;SDS011;35067;48.134;8.378;2023-12-04T02:21:18;4.33;;;3.23;;
49235;SDS011;35067;48.134;8.378;2023-12-04T02:22:18;4.67;;;3.20;;
49235;SDS011;35067;48.134;8.378;2023-12-04T02:23:19;6.13;;;3.20;;
49235;SDS011;35067;48.134;8.378;2023-12-04T02:24:20;7.03;;;3.00;;
49235;SDS011;35067;48.134;8.378;2023-12-04T02:25:20;4.00;;;2.87;;
49235;SDS011;35067;48.134;8.378;2023-12-04T02:26:22;7.23;;;3.50;;
49235;SDS011;35067;48.134;8.378;2023-12-04T02:27:31;7.78;;;3.67;;
49235;SDS011;35067;48.134;8.378;2023-12-04T02:28:40;3.85;;;2.60;;
49235;SDS011;35067;48.134;8.378;2023-12-04T02:29:46;4.05;;;2.45;;
49235;SDS011;35067;48.134;8.378;2023-12-04T02:30:59;3.55;;;2.10;;
49235;SDS011;35067;48.134;8.378;2023-12-04T02:32:02;3.55;;;2.10;;
49235;SDS011;35067;48.134;8.378;2023-12-04T02:33:06;5.22;;;2.83;;
49235;SDS011;35067;48.134;8.378;2023-12-04T02:34:07;2.10;;;1.80;;
49235;SDS011;35067;48.134;8.378;2023-12-04T02:35:11;3.38;;;2.72;;
49235;SDS011;35067;48.134;8.378;2023-12-04T02:36:14;3.55;;;2.55;;
49235;SDS011;35067;48.134;8.378;2023-12-04T02:37:15;4.57;;;2.65;;
49235;SDS011;35067;48.134;8.378;2023-12-04T02:38:18;2.92;;;2.40;;
49235;SDS011;35067;48.134;8.378;2023-12-04T02:39:19;4.37;;;3.20;;
49235;SDS011;35067;48.134;8.378;2023-12-04T02:40:21;5.20;;;2.97;;
49235;SDS011;35067;48.134;8.378;2023-12-04T02:41:22;4.55;;;2.53;;
49235;SDS011;35067;48.134;8.378;2023-12-04T02:42:24;4.10;;;2.10;;
49235;SDS011;35067;48.134;8.378;2023-12-04T02:43:25;4.55;;;2.50;;
49235;SDS011;35067;48.134;8.378;2023-12-04T02:44:26;3.13;;;2.10;;
49235;SDS011;35067;48.134;8.378;2023-12-04T02:45:26;2.53;;;1.83;;
49235;SDS011;35067;48.134;8.378;2023-12-04T02:46:27;4.90;;;2.13;;
49235;SDS011;35067;48.134;8.378;2023-12-04T02:47:28;3.30;;;2.57;;
49235;SDS011;35067;48.134;8.378;2023-12-04T02:48:28;4.13;;;2.57;;
49235;SDS011;35067;48.134;8.378;2023-12-04T02:49:29;3.33;;;2.50;;
49235;SDS011;35067;48.134;8.378;2023-12-04T02:50:30;2.33;;;1.80;;
49235;SDS011;35067;48.134;8.378;2023-12-04T02:51:30;2.43;;;1.63;;
49235;SDS011;35067;48.134;8.378;2023-12-04T02:52:31;2.73;;;1.40;;
49235;SDS011;35067;48.134;8.378;2023-12-04T02:53:32;3.17;;;2.00;;
49235;SDS011;35067;48.134;8.378;2023-12-04T02:54:32;2.13;;;1.53;;
49235;SDS011;35067;48.134;8.378;2023-12-04T02:55:33;1.50;;;1.40;;
49235;SDS011;35067;48.134;8.378;2023-12-04T02:56:34;2.10;;;1.43;;
49235;SDS011;35067;48.134;8.378;2023-12-04T02:57:34;1.43;;;1.27;;
49235;SDS011;35067;48.134;8.378;2023-12-04T02:58:35;2.00;;;1.40;;
49235;SDS011;35067;48.134;8.378;2023-12-04T02:59:36;2.20;;;1.50;;
49235;SDS011;35067;48.134;8.378;2023-12-04T03:00:36;2.57;;;1.37;;
49235;SDS011;35067;48.134;8.378;2023-12-04T03:01:37;1.63;;;1.20;;
49235;SDS011;35067;48.134;8.378;2023-12-04T03:02:38;3.70;;;1.83;;
49235;SDS011;35067;48.134;8.378;2023-12-04T03:03:38;2.47;;;1.47;;
49235;SDS011;35067;48.134;8.378;2023-12-04T03:04:39;2.30;;;1.53;;
49235;SDS011;35067;48.134;8.378;2023-12-04T03:05:40;2.73;;;1.63;;
49235;SDS011;35067;48.134;8.378;2023-12-04T03:06:41;3.03;;;2.00;;
49235;SDS011;35067;48.134;8.378;2023-12-04T03:07:41;4.20;;;2.57;;
49235;SDS011;35067;48.134;8.378;2023-12-04T03:08:42;2.67;;;1.60;;
49235;SDS011;35067;48.134;8.378;2023-12-04T03:09:43;2.70;;;1.90;;
49235;SDS011;35067;48.134;8.378;2023-12-04T03:10:43;2.40;;;1.83;;
49235;SDS011;35067;48.134;8.378;2023-12-04T03:11:44;3.77;;;1.63;;
49235;SDS011;35067;48.134;8.378;2023-12-04T03:12:45;3.40;;;2.17;;
49235;SDS011;35067;48.134;8.378;2023-12-04T03:13:46;3.43;;;2.20;;
49235;SDS011;35067;48.134;8.378;2023-12-04T03:14:46;2.60;;;1.80;;
49235;SDS011;35067;48.134;8.378;2023-12-04T03:15:47;2.60;;;1.57;;
49235;SDS011;35067;48.134;8.378;2023-12-04T03:16:48;2.93;;;2.13;;
49235;SDS011;35067;48.134;8.378;2023-12-04T03:17:50;1.40;;;1.30;;
49235;SDS011;35067;48.134;8.378;2023-12-04T03:18:52;1.65;;;1.45;;
49235;SDS011;35067;48.134;8.378;2023-12-04T03:19:52;1.83;;;1.40;;
49235;SDS011;35067;48.134;8.378;2023-12-04T03:20:53;2.00;;;1.20;;
49235;SDS011;35067;48.134;8.378;2023-12-04T03:21:54;3.45;;;1.42;;
49235;SDS011;35067;48.134;8.378;2023-12-04T03:22:55;2.37;;;1.77;;
49235;SDS011;35067;48.134;8.378;2023-12-04T03:23:55;2.80;;;1.73;;
49235;SDS011;35067;48.134;8.378;2023-12-04T03:24:56;2.73;;;1.73;;
49235;SDS011;35067;48.134;8.378;2023-12-04T03:25:57;2.47;;;1.57;;
49235;SDS011;35067;48.134;8.378;2023-12-04T03:26:57;2.00;;;1.50;;
49235;SDS011;35067;48.134;8.378;2023-12-04T03:27:58;2.60;;;1.40;;
49235;SDS011;35067;48.134;8.378;2023-12-04T03:28:59;1.77;;;1.37;;
49235;SDS011;35067;48.134;8.378;2023-12-04T03:29:59;2.23;;;1.60;;
49235;SDS011;35067;48.134;8.378;2023-12-04T03:31:01;1.97;;;1.43;;
49235;SDS011;35067;48.134;8.378;2023-12-04T03:32:02;2.25;;;1.45;;
49235;SDS011;35067;48.134;8.378;2023-12-04T03:33:03;2.33;;;1.88;;
49235;SDS011;35067;48.134;8.378;2023-12-04T03:34:04;1.77;;;1.17;;
49235;SDS011;35067;48.134;8.378;2023-12-04T03:35:05;3.88;;;1.80;;
49235;SDS011;35067;48.134;8.378;2023-12-04T03:36:06;2.80;;;1.27;;
49235;SDS011;35067;48.134;8.378;2023-12-04T03:37:08;2.33;;;1.88;;
49235;SDS011;35067;48.134;8.378;2023-12-04T03:38:08;4.30;;;2.30;;
49235;SDS011;35067;48.134;8.378;2023-12-04T03:39:09;3.20;;;2.60;;
49235;SDS011;35067;48.134;8.378;2023-12-04T03:40:10;2.50;;;2.17;;
49235;SDS011;35067;48.134;8.378;2023-12-04T03:41:15;2.92;;;1.85;;
49235;SDS011;35067;48.134;8.378;2023-12-04T03:42:16;3.75;;;2.05;;
49235;SDS011;35067;48.134;8.378;2023-12-04T03:43:16;2.40;;;2.20;;
49235;SDS011;35067;48.134;8.378;2023-12-04T03:44:17;2.50;;;1.80;;
49235;SDS011;35067;48.134;8.378;2023-12-04T03:45:18;2.40;;;1.77;;
49235;SDS011;35067;48.134;8.378;2023-12-04T03:46:19;3.53;;;1.93;;
49235;SDS011;35067;48.134;8.378;2023-12-04T03:47:20;2.90;;;1.75;;
49235;SDS011;35067;48.134;8.378;2023-12-04T03:48:20;3.23;;;2.40;;
49235;SDS011;35067;48.134;8.378;2023-12-04T03:49:21;4.70;;;2.67;;
49235;SDS011;35067;48.134;8.378;2023-12-04T03:50:22;4.00;;;2.40;;
49235;SDS011;35067;48.134;8.378;2023-12-04T03:51:24;3.22;;;2.42;;
49235;SDS011;35067;48.134;8.378;2023-12-04T03:52:24;3.20;;;2.33;;
49235;SDS011;35067;48.134;8.378;2023-12-04T03:53:28;4.73;;;2.33;;
49235;SDS011;35067;48.134;8.378;2023-12-04T03:54:29;2.42;;;2.20;;
49235;SDS011;35067;48.134;8.378;2023-12-04T03:55:30;2.73;;;2.27;;
49235;SDS011;35067;48.134;8.378;2023-12-04T03:56:30;2.07;;;1.53;;
49235;SDS011;35067;48.134;8.378;2023-12-04T03:57:31;2.50;;;1.53;;
49235;SDS011;35067;48.134;8.378;2023-12-04T03:58:33;3.23;;;2.37;;
49235;SDS011;35067;48.134;8.378;2023-12-04T03:59:34;2.50;;;2.28;;
49235;SDS011;35067;48.134;8.378;2023-12-04T04:00:35;2.43;;;1.93;;
49235;SDS011;35067;48.134;8.378;2023-12-04T04:01:35;2.10;;;1.53;;
49235;SDS011;35067;48.134;8.378;2023-12-04T04:02:36;1.90;;;1.70;;
49235;SDS011;35067;48.134;8.378;2023-12-04T04:03:38;1.77;;;1.52;;
49235;SDS011;35067;48.134;8.378;2023-12-04T04:04:39;3.83;;;2.33;;
49235;SDS011;35067;48.134;8.378;2023-12-04T04:05:40;2.67;;;1.73;;
49235;SDS011;35067;48.134;8.378;2023-12-04T04:06:40;3.00;;;2.13;;
49235;SDS011;35067;48.134;8.378;2023-12-04T04:07:41;4.63;;;1.67;;
49235;SDS011;35067;48.134;8.378;2023-12-04T04:08:42;2.55;;;2.03;;
49235;SDS011;35067;48.134;8.378;2023-12-04T04:09:43;3.17;;;2.07;;
49235;SDS011;35067;48.134;8.378;2023-12-04T04:10:44;4.75;;;1.80;;
49235;SDS011;35067;48.134;8.378;2023-12-04T04:11:45;1.95;;;1.23;;
49235;SDS011;35067;48.134;8.378;2023-12-04T04:12:46;1.50;;;1.40;;
49235;SDS011;35067;48.134;8.378;2023-12-04T04:13:47;2.63;;;1.80;;
49235;SDS011;35067;48.134;8.378;2023-12-04T04:14:47;2.83;;;1.43;;
49235;SDS011;35067;48.134;8.378;2023-12-04T04:15:48;2.40;;;1.57;;
49235;SDS011;35067;48.134;8.378;2023-12-04T04:16:49;2.60;;;1.60;;
49235;SDS011;35067;48.134;8.378;2023-12-04T04:17:50;1.80;;;1.10;;
49235;SDS011;35067;48.134;8.378;2023-12-04T04:18:50;1.83;;;1.20;;
49235;SDS011;35067;48.134;8.378;2023-12-04T04:19:52;1.10;;;1.00;;
49235;SDS011;35067;48.134;8.378;2023-12-04T04:20:53;1.25;;;1.05;;
49235;SDS011;35067;48.134;8.378;2023-12-04T04:21:54;1.60;;;1.07;;
49235;SDS011;35067;48.134;8.378;2023-12-04T04:22:55;1.65;;;1.20;;
49235;SDS011;35067;48.134;8.378;2023-12-04T04:23:55;2.43;;;1.60;;
49235;SDS011;35067;48.134;8.378;2023-12-04T04:24:56;1.30;;;1.13;;
49235;SDS011;35067;48.134;8.378;2023-12-04T04:25:57;4.17;;;2.23;;
49235;SDS011;35067;48.134;8.378;2023-12-04T04:26:57;2.20;;;1.87;;
49235;SDS011;35067;48.134;8.378;2023-12-04T04:27:58;2.77;;;2.03;;
49235;SDS011;35067;48.134;8.378;2023-12-04T04:28:59;3.07;;;2.00;;
49235;SDS011;35067;48.134;8.378;2023-12-04T04:30:00;1.90;;;1.67;;
49235;SDS011;35067;48.134;8.378;2023-12-04T04:31:01;3.30;;;1.75;;
49235;SDS011;35067;48.134;8.378;2023-12-04T04:32:02;1.97;;;1.70;;
49235;SDS011;35067;48.134;8.378;2023-12-04T04:33:03;2.53;;;1.80;;
49235;SDS011;35067;48.134;8.378;2023-12-04T04:34:04;2.72;;;1.35;;
49235;SDS011;35067;48.134;8.378;2023-12-04T04:35:05;1.70;;;1.57;;
49235;SDS011;35067;48.134;8.378;2023-12-04T04:36:09;2.13;;;1.60;;
49235;SDS011;35067;48.134;8.378;2023-12-04T04:37:10;2.47;;;1.80;;
49235;SDS011;35067;48.134;8.378;2023-12-04T04:38:10;2.13;;;1.63;;
49235;SDS011;35067;48.134;8.378;2023-12-04T04:39:12;3.57;;;2.40;;
49235;SDS011;35067;48.134;8.378;2023-12-04T04:40:14;2.28;;;1.67;;
49235;SDS011;35067;48.134;8.378;2023-12-04T04:41:14;2.27;;;1.77;;
49235;SDS011;35067;48.134;8.378;2023-12-04T04:42:15;2.88;;;1.70;;
49235;SDS011;35067;48.134;8.378;2023-12-04T04:43:16;1.43;;;1.30;;
49235;SDS011;35067;48.134;8.378;2023-12-04T04:44:17;3.87;;;1.93;;
49235;SDS011;35067;48.134;8.378;2023-12-04T04:45:17;2.80;;;1.53;;
49235;SDS011;35067;48.134;8.378;2023-12-04T04:46:19;1.50;;;1.40;;
49235;SDS011;35067;48.134;8.378;2023-12-04T04:47:20;2.70;;;1.85;;
49235;SDS011;35067;48.134;8.378;2023-12-04T04:48:21;6.60;;;1.80;;
49235;SDS011;35067;48.134;8.378;2023-12-04T04:49:22;4.40;;;2.07;;
49235;SDS011;35067;48.134;8.378;2023-12-04T04:50:23;3.20;;;1.40;;
49235;SDS011;35067;48.134;8.378;2023-12-04T04:51:23;2.20;;;1.70;;
49235;SDS011;35067;48.134;8.378;2023-12-04T04:52:24;2.10;;;1.90;;
49235;SDS011;35067;48.134;8.378;2023-12-04T04:53:25;3.27;;;1.87;;
49235;SDS011;35067;48.134;8.378;2023-12-04T04:54:25;1.60;;;1.50;;
49235;SDS011;35067;48.134;8.378;2023-12-04T04:55:26;3.13;;;1.80;;
49235;SDS011;35067;48.134;8.378;2023-12-04T04:56:28;2.22;;;1.80;;
49235;SDS011;35067;48.134;8.378;2023-12-04T04:57:29;3.25;;;2.22;;
49235;SDS011;35067;48.134;8.378;2023-12-04T04:58:30;3.13;;;2.03;;
49235;SDS011;35067;48.134;8.378;2023-12-04T04:59:31;2.80;;;2.10;;
49235;SDS011;35067;48.134;8.378;2023-12-04T05:00:32;2.83;;;1.93;;
49235;SDS011;35067;48.134;8.378;2023-12-04T05:01:32;2.70;;;2.20;;
49235;SDS011;35067;48.134;8.378;2023-12-04T05:02:33;2.37;;;2.10;;
49235;SDS011;35067;48.134;8.378;2023-12-04T05:03:35;2.80;;;2.10;;
49235;SDS011;35067;48.134;8.378;2023-12-04T05:04:36;2.20;;;1.67;;
49235;SDS011;35067;48.134;8.378;2023-12-04T05:05:36;4.23;;;3.20;;
49235;SDS011;35067;48.134;8.378;2023-12-04T05:06:37;2.73;;;2.00;;
49235;SDS011;35067;48.134;8.378;2023-12-04T05:07:38;3.50;;;2.38;;
49235;SDS011;35067;48.134;8.378;2023-12-04T05:08:39;3.90;;;2.20;;
49235;SDS011;35067;48.134;8.378;2023-12-04T05:09:40;1.90;;;1.60;;
49235;SDS011;35067;48.134;8.378;2023-12-04T05:10:41;3.00;;;2.03;;
49235;SDS011;35067;48.134;8.378;2023-12-04T05:11:42;2.85;;;1.73;;
49235;SDS011;35067;48.134;8.378;2023-12-04T05:12:42;2.17;;;1.40;;
49235;SDS011;35067;48.134;8.378;2023-12-04T05:13:46;4.20;;;2.33;;
49235;SDS011;35067;48.134;8.378;2023-12-04T05:14:47;3.25;;;1.83;;
49235;SDS011;35067;48.134;8.378;2023-12-04T05:15:48;2.67;;;1.80;;
49235;SDS011;35067;48.134;8.378;2023-12-04T05:16:49;4.63;;;3.20;;
49235;SDS011;35067;48.134;8.378;2023-12-04T05:17:49;5.80;;;3.37;;
49235;SDS011;35067;48.134;8.378;2023-12-04T05:18:51;6.20;;;3.50;;
49235;SDS011;35067;48.134;8.378;2023-12-04T05:19:51;1.93;;;1.73;;
49235;SDS011;35067;48.134;8.378;2023-12-04T05:20:52;2.60;;;1.97;;
49235;SDS011;35067;48.134;8.378;2023-12-04T05:21:53;3.13;;;2.23;;
49235;SDS011;35067;48.134;8.378;2023-12-04T05:22:53;3.13;;;2.60;;
49235;SDS011;35067;48.134;8.378;2023-12-04T05:23:54;2.30;;;1.67;;
49235;SDS011;35067;48.134;8.378;2023-12-04T05:24:55;3.03;;;1.97;;
49235;SDS011;35067;48.134;8.378;2023-12-04T05:25:57;3.95;;;2.40;;
49235;SDS011;35067;48.134;8.378;2023-12-04T05:26:58;4.23;;;2.80;;
49235;SDS011;35067;48.134;8.378;2023-12-04T05:27:58;5.78;;;3.67;;
49235;SDS011;35067;48.134;8.378;2023-12-04T05:28:59;5.10;;;2.83;;
49235;SDS011;35067;48.134;8.378;2023-12-04T05:30:00;5.77;;;3.63;;
49235;SDS011;35067;48.134;8.378;2023-12-04T05:31:00;4.93;;;3.60;;
49235;SDS011;35067;48.134;8.378;2023-12-04T05:32:01;2.40;;;2.20;;
49235;SDS011;35067;48.134;8.378;2023-12-04T05:33:02;3.57;;;2.70;;
49235;SDS011;35067;48.134;8.378;2023-12-04T05:34:03;3.93;;;2.60;;
49235;SDS011;35067;48.134;8.378;2023-12-04T05:35:04;3.83;;;2.97;;
49235;SDS011;35067;48.134;8.378;2023-12-04T05:36:05;7.30;;;3.33;;
49235;SDS011;35067;48.134;8.378;2023-12-04T05:37:06;7.25;;;2.95;;
49235;SDS011;35067;48.134;8.378;2023-12-04T05:38:07;3.87;;;2.50;;
49235;SDS011;35067;48.134;8.378;2023-12-04T05:39:08;9.30;;;5.68;;
49235;SDS011;35067;48.134;8.378;2023-12-04T05:40:09;17.37;;;7.20;;
49235;SDS011;35067;48.134;8.378;2023-12-04T05:41:11;10.43;;;6.10;;
49235;SDS011;35067;48.134;8.378;2023-12-04T05:42:11;8.83;;;4.43;;
49235;SDS011;35067;48.134;8.378;2023-12-04T05:43:12;8.73;;;4.90;;
49235;SDS011;35067;48.134;8.378;2023-12-04T05:44:13;4.57;;;2.67;;
49235;SDS011;35067;48.134;8.378;2023-12-04T05:45:14;4.75;;;2.60;;
49235;SDS011;35067;48.134;8.378;2023-12-04T05:46:15;4.17;;;3.03;;
49235;SDS011;35067;48.134;8.378;2023-12-04T05:47:15;4.37;;;2.10;;
49235;SDS011;35067;48.134;8.378;2023-12-04T05:48:16;4.90;;;2.43;;
49235;SDS011;35067;48.134;8.378;2023-12-04T05:49:17;3.47;;;2.50;;
49235;SDS011;35067;48.134;8.378;2023-12-04T05:50:17;5.93;;;3.20;;
49235;SDS011;35067;48.134;8.378;2023-12-04T05:51:18;4.13;;;2.70;;
49235;SDS011;35067;48.134;8.378;2023-12-04T05:52:19;4.53;;;2.23;;
49235;SDS011;35067;48.134;8.378;2023-12-04T05:53:19;4.80;;;2.77;;
49235;SDS011;35067;48.134;8.378;2023-12-04T05:54:20;3.20;;;2.17;;
49235;SDS011;35067;48.134;8.378;2023-12-04T05:55:21;3.97;;;2.63;;
49235;SDS011;35067;48.134;8.378;2023-12-04T05:56:21;3.00;;;2.20;;
49235;SDS011;35067;48.134;8.378;2023-12-04T05:57:22;3.30;;;2.37;;
49235;SDS011;35067;48.134;8.378;2023-12-04T05:58:23;3.57;;;2.50;;
49235;SDS011;35067;48.134;8.378;2023-12-04T05:59:24;3.20;;;1.90;;
49235;SDS011;35067;48.134;8.378;2023-12-04T06:00:24;2.33;;;2.00;;
49235;SDS011;35067;48.134;8.378;2023-12-04T06:01:25;3.83;;;2.28;;
49235;SDS011;35067;48.134;8.378;2023-12-04T06:02:26;2.90;;;2.07;;
49235;SDS011;35067;48.134;8.378;2023-12-04T06:03:30;2.50;;;2.05;;
49235;SDS011;35067;48.134;8.378;2023-12-04T06:04:30;4.17;;;2.40;;
49235;SDS011;35067;48.134;8.378;2023-12-04T06:05:31;4.27;;;2.77;;
49235;SDS011;35067;48.134;8.378;2023-12-04T06:06:32;4.70;;;3.47;;
49235;SDS011;35067;48.134;8.378;2023-12-04T06:07:33;2.67;;;2.13;;